Etusivu
METAR-TAF:

METAR-TAF

Lentoasemat :

Pekingin kansainvälinen lentoasema

Peking, Kiina

Leveyspiiri: 39-56N, Pituuspiiri: 116-17E, korkeus merenpinnasta: 55 m

Tämänhetkinen sää

Tämä raportti tehtiin 17 minuuttia sitten, kello 15.30 UTC
Tuuli 6 kn idästä, vaihdellen koillisen ja kaakon välillä
Lämpötila 28°C
Kosteus 74%
Ilmanpaine 1004 hPa
Näkyvyys 10 km tai enemmän
ei pilviä alle 1500 m:ssä eikä cumulonimbus-pilviä

METAR: ZBAA 231530Z 10003MPS 040V130 CAVOK 28/23 Q1004 NOSIG

Aika: 23:47 (15:47 UTC)

Sääennuste

Tämä raportti tehtiin 6 tuntia ja 17 minuuttia sitten, kello 09.30 UTC
Ennuste voimassa 23. päivästä klo 12 UTC - 24. päivään klo 12 UTC
Tuuli 8 kn pohjoisesta
Näkyvyys: 5000 m
heikkoa sadetta, utua
Ajoittain
23. päivästä klo 22 UTC - 24. päivään klo 04 UTC
Näkyvyys: 2000 m
sadetta, utua

TAF: ZBAA 230930Z 2312/2412 01004MPS 5000 -RA BR NSC TX28/2407Z TN24/2321Z TEMPO 2322/2404 2000 RA BR

Säähavainnot ja -ennusteet yli 4000 lentoasemalta (METAR- ja TAF-raportit).

Käytössä olevat sääasemat on merkitty karttaan keltaisilla ja punaisilla pisteillä.

Aseta hiiri pisteen päälle nähdäksesi sääaseman nimen.

Klikkaa sitten nähdäksesi säähavainnot ja -ennusteet.

Kartan vaihtaminen: klikkaa mustalla rastilla varustettuja vihreitä pisteitä, niin voit zoomata sisään; viivalla varustettua vihreää pistettä, niin voit zoomata ulos tai vihreitä nuolia, niin pääset viereisille kartoille.


METAR-TAF: